createdAt,value
2018-10-19T00:12:28.340Z,0
2018-10-19T00:13:20.883Z,0
2018-10-19T00:14:12.961Z,0
2018-10-19T00:15:05.079Z,0
2018-10-19T00:27:27.059Z,0
2018-10-19T00:28:19.027Z,0
2018-10-19T00:29:11.606Z,0
2018-10-19T00:30:03.905Z,0
2018-10-19T00:30:56.288Z,0
2018-10-19T00:31:48.472Z,0
2018-10-19T00:32:40.995Z,0
2018-10-19T00:33:32.984Z,0
2018-10-19T00:34:25.436Z,0
2018-10-19T00:35:17.988Z,0
2018-10-19T00:36:10.605Z,0
2018-10-19T00:37:02.862Z,0
2018-10-19T00:37:54.986Z,0
2018-10-19T00:38:47.527Z,0
2018-10-19T00:39:39.948Z,0
2018-10-19T00:40:32.666Z,0
2018-10-19T00:41:24.931Z,0
2018-10-19T00:42:17.383Z,0
2018-10-19T00:43:09.809Z,0
2018-10-19T00:44:02.351Z,0
2018-10-19T00:44:55.055Z,0
2018-10-19T00:45:47.020Z,0
2018-10-19T00:46:39.174Z,0
2018-10-19T00:47:31.369Z,0
2018-10-19T00:48:23.527Z,0
2018-10-19T00:49:15.736Z,0
2018-10-19T00:50:07.825Z,0
2018-10-19T00:51:00.197Z,0
2018-10-19T00:51:52.471Z,0
2018-10-19T00:52:44.890Z,0
2018-10-19T00:53:37.397Z,0
2018-10-19T00:54:30.534Z,0
2018-10-19T00:55:22.873Z,0
2018-10-19T00:56:15.331Z,0
2018-10-19T00:57:07.469Z,0
2018-10-19T00:58:00.302Z,0
2018-10-19T00:58:52.299Z,0
2018-10-19T00:59:44.999Z,0
2018-10-19T01:00:38.366Z,0
2018-10-19T01:01:30.432Z,0
2018-10-19T01:02:22.678Z,0
2018-10-19T01:03:15.273Z,0
2018-10-19T01:04:07.270Z,0
2018-10-19T01:04:59.379Z,0
2018-10-19T01:05:52.957Z,0
2018-10-19T01:06:45.248Z,0
2018-10-19T01:07:38.254Z,0
2018-10-19T01:08:30.571Z,0
2018-10-19T01:09:22.930Z,0
2018-10-19T01:10:16.594Z,0
2018-10-19T01:11:08.944Z,0
2018-10-19T01:12:01.353Z,0
2018-10-19T01:12:53.810Z,0
2018-10-19T01:13:45.969Z,0
2018-10-19T01:14:37.839Z,0
2018-10-19T01:15:30.212Z,0
2018-10-19T01:16:22.392Z,0
2018-10-19T01:17:14.599Z,0
2018-10-19T01:18:06.999Z,0
2018-10-19T01:18:59.322Z,0
2018-10-19T01:19:51.364Z,0
2018-10-19T01:20:43.859Z,0
2018-10-19T01:21:35.758Z,0
2018-10-19T01:22:28.996Z,0
2018-10-19T01:23:21.358Z,0
2018-10-19T01:24:14.049Z,0
2018-10-19T01:25:06.056Z,0
2018-10-19T01:25:59.361Z,0
2018-10-19T01:26:52.469Z,0
2018-10-19T01:27:45.687Z,0
2018-10-19T01:28:38.016Z,0
2018-10-19T01:29:31.328Z,0
2018-10-19T01:30:23.366Z,0
2018-10-19T01:31:15.319Z,0
2018-10-19T01:32:11.190Z,0
2018-10-19T01:33:03.784Z,0
2018-10-19T01:33:56.599Z,0
2018-10-19T01:34:50.487Z,0
2018-10-19T01:35:43.032Z,0
2018-10-19T01:36:36.795Z,0
2018-10-19T01:37:29.975Z,0
2018-10-19T01:38:22.429Z,0
2018-10-19T01:39:15.296Z,0
2018-10-19T01:40:10.399Z,0
2018-10-19T01:41:03.813Z,0
2018-10-19T01:41:56.201Z,0
2018-10-19T01:42:50.142Z,0
2018-10-19T01:43:41.971Z,0
2018-10-19T01:44:34.371Z,0
2018-10-19T01:45:28.288Z,0
2018-10-19T01:46:21.897Z,0
2018-10-19T01:47:14.599Z,0
2018-10-19T01:48:07.007Z,0
2018-10-19T01:48:59.517Z,0
2018-10-19T01:49:51.646Z,0
2018-10-19T01:50:48.804Z,0
2018-10-19T01:51:47.927Z,0
2018-10-19T01:52:47.670Z,0
2018-10-19T01:53:48.882Z,0
2018-10-19T01:54:44.405Z,0
2018-10-19T01:55:46.046Z,0
2018-10-19T01:56:47.068Z,0
2018-10-19T01:57:45.974Z,0
2018-10-19T01:58:44.634Z,0
2018-10-19T01:59:42.143Z,0
2018-10-19T02:00:41.430Z,0
2018-10-19T02:01:37.641Z,0
2018-10-19T02:02:32.264Z,0
2018-10-19T02:03:31.724Z,0
2018-10-19T02:04:32.736Z,0
2018-10-19T02:05:30.542Z,0
2018-10-19T02:06:31.481Z,0
2018-10-19T02:07:29.191Z,0
2018-10-19T02:08:28.842Z,0
2018-10-19T02:09:25.685Z,0
2018-10-19T02:10:25.818Z,0
2018-10-19T02:11:25.464Z,0
2018-10-19T02:12:26.233Z,0
2018-10-19T02:13:24.429Z,0
2018-10-19T02:14:25.070Z,0
2018-10-19T02:15:24.609Z,0
2018-10-19T02:16:24.071Z,0
2018-10-19T02:17:22.971Z,0
2018-10-19T02:18:24.207Z,0
2018-10-19T02:19:39.835Z,0
2018-10-19T02:22:20.544Z,0
2018-10-19T02:23:12.860Z,0
2018-10-19T02:24:05.433Z,0
2018-10-19T02:24:57.626Z,0
2018-10-19T02:25:50.281Z,0
2018-10-19T02:26:42.484Z,0
2018-10-19T02:27:34.707Z,0
2018-10-19T02:28:26.784Z,0
2018-10-19T02:29:19.119Z,0
2018-10-19T02:30:11.556Z,0
2018-10-19T02:31:03.679Z,0
2018-10-19T02:31:55.669Z,0
2018-10-19T02:32:47.655Z,0
2018-10-19T02:33:40.235Z,0
2018-10-19T02:34:32.556Z,0
2018-10-19T02:35:25.113Z,0
2018-10-19T02:36:17.244Z,0
2018-10-19T02:37:09.633Z,0
2018-10-19T02:38:01.633Z,0
2018-10-19T02:38:54.264Z,0
2018-10-19T02:39:46.242Z,0
2018-10-19T02:40:38.953Z,0
2018-10-19T02:41:30.965Z,0
2018-10-19T02:42:23.102Z,0
2018-10-19T02:43:15.207Z,0
2018-10-19T02:44:07.479Z,0
2018-10-19T02:44:59.613Z,0
2018-10-19T02:45:51.867Z,0
2018-10-19T02:46:43.945Z,0
2018-10-19T02:47:36.133Z,0
2018-10-19T02:48:28.102Z,0
2018-10-19T02:49:20.412Z,0
2018-10-19T02:50:12.633Z,0
2018-10-19T02:51:05.267Z,0
2018-10-19T02:51:57.599Z,0
2018-10-19T02:52:49.746Z,0
2018-10-19T02:53:41.696Z,0
2018-10-19T02:54:34.287Z,0
2018-10-19T02:55:26.251Z,0
2018-10-19T02:56:18.900Z,0
2018-10-19T02:57:11.392Z,0
2018-10-19T02:58:03.473Z,0
2018-10-19T02:58:56.699Z,0
2018-10-19T02:59:49.269Z,0
2018-10-19T03:00:42.344Z,0
2018-10-19T03:01:34.392Z,0
2018-10-19T03:02:27.264Z,0
2018-10-19T03:03:19.330Z,0
2018-10-19T03:04:11.537Z,0
2018-10-19T03:05:03.812Z,0
2018-10-19T03:05:55.882Z,0
2018-10-19T03:06:48.150Z,0
2018-10-19T03:07:41.330Z,0
2018-10-19T03:08:34.281Z,0
2018-10-19T03:09:26.071Z,0
2018-10-19T03:10:18.506Z,0
2018-10-19T03:11:10.652Z,0
2018-10-19T03:12:02.792Z,0
2018-10-19T03:12:54.971Z,0
2018-10-19T03:13:47.114Z,0
2018-10-19T03:14:39.697Z,0
2018-10-19T03:15:31.656Z,0
2018-10-19T03:16:23.404Z,0
2018-10-19T03:17:16.269Z,0
2018-10-19T03:18:09.069Z,0
2018-10-19T03:19:01.435Z,0
2018-10-19T03:19:53.595Z,0
2018-10-19T03:20:45.966Z,0
2018-10-19T03:21:38.039Z,0
2018-10-19T03:22:30.922Z,0
2018-10-19T03:23:22.767Z,0
2018-10-19T03:24:15.279Z,0
2018-10-19T03:25:07.213Z,0
2018-10-19T03:25:59.782Z,0
2018-10-19T03:26:52.277Z,0
2018-10-19T03:27:44.273Z,0
2018-10-19T03:28:36.206Z,0
2018-10-19T03:29:28.582Z,0
2018-10-19T03:30:22.112Z,0
2018-10-19T03:31:18.506Z,0
2018-10-19T03:32:13.179Z,0
2018-10-19T03:33:06.302Z,0
2018-10-19T03:37:51.579Z,0
2018-10-19T03:38:32.005Z,0
2018-10-19T03:39:12.518Z,0
2018-10-19T03:41:41.467Z,0
2018-10-19T03:42:33.559Z,0
2018-10-19T03:43:25.589Z,0
2018-10-19T03:44:17.614Z,0
2018-10-19T03:45:09.682Z,0
2018-10-19T03:46:02.189Z,0
2018-10-19T03:46:54.243Z,0
2018-10-19T03:47:46.660Z,0
2018-10-19T03:48:39.071Z,0
2018-10-19T03:49:31.159Z,0
2018-10-19T03:50:23.340Z,0
2018-10-19T03:52:49.056Z,0
2018-10-19T03:53:41.432Z,0
2018-10-19T03:54:33.847Z,0
2018-10-19T03:55:26.634Z,0
2018-10-19T03:56:18.947Z,0
2018-10-19T03:57:11.503Z,0
2018-10-19T03:58:03.966Z,0
2018-10-19T03:59:03.556Z,0
2018-10-19T03:59:55.877Z,0
2018-10-19T04:00:48.629Z,0
2018-10-19T04:01:40.861Z,0
2018-10-19T04:02:33.201Z,0
2018-10-19T04:03:25.773Z,0
2018-10-19T04:04:18.582Z,0
2018-10-19T04:05:13.387Z,0
2018-10-19T04:06:05.190Z,0
2018-10-19T04:06:58.100Z,0
2018-10-19T04:07:54.574Z,0
2018-10-19T04:08:46.768Z,0
2018-10-19T04:09:40.898Z,0
2018-10-19T04:10:34.392Z,0
2018-10-19T04:11:26.492Z,0
2018-10-19T04:12:18.938Z,0
2018-10-19T04:13:11.070Z,0
2018-10-19T04:14:03.420Z,0
2018-10-19T04:14:55.842Z,0
2018-10-19T04:15:48.439Z,0
2018-10-19T04:16:41.107Z,0
2018-10-19T04:17:33.394Z,0
2018-10-19T04:18:25.830Z,0
2018-10-19T04:19:19.472Z,0
2018-10-19T04:20:11.922Z,0
2018-10-19T04:21:04.289Z,0
2018-10-19T04:21:56.523Z,0
2018-10-19T04:22:48.727Z,0
2018-10-19T04:23:40.819Z,0
2018-10-19T04:24:33.356Z,0
2018-10-19T04:25:25.445Z,0
2018-10-19T04:26:17.311Z,0
2018-10-19T04:27:09.988Z,0
2018-10-19T04:28:02.148Z,0
2018-10-19T05:06:38.267Z,0
2018-10-19T05:07:31.855Z,0
2018-10-19T05:10:27.160Z,0
2018-10-19T05:11:19.338Z,0
2018-10-19T05:12:11.569Z,0
2018-10-19T05:13:05.237Z,0
2018-10-19T05:13:57.658Z,0
2018-10-19T05:14:49.795Z,0
2018-10-19T05:15:53.692Z,0
2018-10-19T05:16:48.704Z,0
2018-10-19T05:17:41.349Z,0
2018-10-19T05:18:33.712Z,0
2018-10-19T05:19:27.266Z,0
2018-10-19T05:20:19.538Z,0
2018-10-19T05:21:11.820Z,0
2018-10-19T05:22:09.226Z,0
2018-10-19T05:23:06.983Z,0
2018-10-19T05:24:06.880Z,0
2018-10-19T05:25:09.297Z,0
2018-10-19T05:26:19.400Z,0
2018-10-19T05:27:25.289Z,0
2018-10-19T05:28:25.902Z,0
2018-10-19T05:29:21.043Z,0
2018-10-19T05:30:18.778Z,0
2018-10-19T05:31:11.825Z,0
2018-10-19T05:32:08.943Z,0
2018-10-19T05:33:01.379Z,0
2018-10-19T05:33:58.374Z,0
2018-10-19T05:34:52.713Z,0
2018-10-19T05:35:46.116Z,0
2018-10-19T05:36:38.349Z,0
2018-10-19T05:37:30.869Z,4
2018-10-19T05:38:24.593Z,0
2018-10-19T05:39:17.815Z,0
2018-10-19T05:40:10.346Z,4
2018-10-19T05:41:02.965Z,4
2018-10-19T05:41:56.968Z,4
2018-10-19T05:42:48.975Z,4
2018-10-19T05:43:41.562Z,4
2018-10-19T05:44:33.966Z,4
2018-10-19T05:45:26.790Z,4
2018-10-19T05:46:19.556Z,4
2018-10-19T05:47:12.335Z,8
2018-10-19T05:48:10.405Z,8
2018-10-19T05:49:02.657Z,12
2018-10-19T05:51:49.167Z,16
2018-10-19T05:52:53.321Z,16
2018-10-19T05:53:52.392Z,20
2018-10-19T05:54:46.411Z,20
2018-10-19T05:55:44.755Z,28
2018-10-19T05:56:40.157Z,32
2018-10-19T05:57:39.484Z,28
2018-10-19T05:58:51.448Z,36
2018-10-19T05:59:44.602Z,40
2018-10-19T06:00:37.169Z,40
2018-10-19T06:01:31.529Z,44
2018-10-19T06:02:30.879Z,48
2018-10-19T06:03:23.286Z,52
2018-10-19T06:04:18.714Z,56
2018-10-19T06:05:13.774Z,60
2018-10-19T06:06:06.715Z,64
2018-10-19T06:07:00.399Z,76
2018-10-19T06:07:53.224Z,80
2018-10-19T06:08:47.537Z,88
2018-10-19T06:11:13.586Z,104
2018-10-19T06:12:06.573Z,112
2018-10-19T06:12:59.384Z,120
2018-10-19T06:13:53.677Z,124
2018-10-19T06:16:31.211Z,136
2018-10-19T06:17:23.468Z,140
2018-10-19T06:18:16.063Z,148
2018-10-19T06:19:08.764Z,156
2018-10-19T06:20:01.111Z,168
2018-10-19T06:20:54.800Z,180
2018-10-19T06:21:48.161Z,192
2018-10-19T06:22:41.483Z,196
2018-10-19T06:23:41.688Z,208
2018-10-19T06:24:34.304Z,212
2018-10-19T06:25:28.187Z,208
2018-10-19T06:26:25.738Z,220
2018-10-19T06:27:19.021Z,232
2018-10-19T06:28:12.109Z,240
2018-10-19T06:29:05.190Z,240
2018-10-19T06:29:57.828Z,240
2018-10-19T06:30:51.376Z,252
2018-10-19T06:31:45.228Z,268
2018-10-19T06:32:38.507Z,300
2018-10-19T06:33:31.245Z,320
2018-10-19T06:34:24.095Z,336
2018-10-19T06:35:17.140Z,344
2018-10-19T06:36:09.295Z,344
2018-10-19T06:37:01.970Z,348
2018-10-19T06:37:54.542Z,364
2018-10-19T06:38:47.726Z,376
2018-10-19T06:39:40.242Z,392
2018-10-19T06:40:38.140Z,412
2018-10-19T06:41:31.878Z,436
2018-10-19T06:42:26.665Z,452
2018-10-19T06:43:22.561Z,472
2018-10-19T06:44:18.197Z,492
2018-10-19T06:45:13.986Z,520
2018-10-19T06:46:10.003Z,532
2018-10-19T06:47:02.988Z,564
2018-10-19T06:47:56.575Z,568
2018-10-19T06:48:48.936Z,572
2018-10-19T06:49:41.613Z,560
2018-10-19T06:50:34.595Z,564
2018-10-19T06:51:28.208Z,580
2018-10-19T06:52:19.816Z,612
2018-10-19T06:53:17.871Z,644
2018-10-19T06:54:10.044Z,676
2018-10-19T06:55:02.087Z,692
2018-10-19T06:55:55.324Z,688
2018-10-19T06:56:48.012Z,668
2018-10-19T06:57:39.873Z,636
2018-10-19T06:58:32.837Z,608
2018-10-19T06:59:25.595Z,584
2018-10-19T07:00:18.750Z,576
2018-10-19T07:01:10.614Z,584
2018-10-19T07:02:02.082Z,580
2018-10-19T07:02:54.360Z,588
2018-10-19T07:03:34.513Z,596
2018-10-19T07:04:14.880Z,604
2018-10-19T07:04:55.283Z,624
2018-10-19T07:05:36.042Z,636
2018-10-19T07:06:16.553Z,652
2018-10-19T07:06:57.211Z,664
2018-10-19T07:07:37.927Z,660
2018-10-19T07:08:18.470Z,668
2018-10-19T07:08:59.105Z,648
2018-10-19T07:09:39.738Z,640
2018-10-19T07:10:20.966Z,660
2018-10-19T07:11:02.511Z,652
2018-10-19T07:11:45.438Z,640
2018-10-19T07:12:26.151Z,652
2018-10-19T07:13:06.806Z,656
2018-10-19T07:13:47.185Z,672
2018-10-19T07:14:27.596Z,676
2018-10-19T07:15:08.183Z,692
2018-10-19T07:15:48.796Z,712
2018-10-19T07:16:29.809Z,720
2018-10-19T07:17:10.237Z,724
2018-10-19T07:17:50.722Z,744
2018-10-19T07:18:31.157Z,756
2018-10-19T07:19:11.708Z,760
2018-10-19T07:19:52.068Z,760
2018-10-19T07:20:32.815Z,732
2018-10-19T07:21:13.131Z,716
2018-10-19T07:21:54.140Z,700
2018-10-19T07:22:34.584Z,700
2018-10-19T07:23:15.228Z,700
2018-10-19T07:23:55.619Z,704
2018-10-19T07:24:36.149Z,692
2018-10-19T07:25:16.847Z,700
2018-10-19T07:25:58.176Z,728
2018-10-19T07:26:37.823Z,752
2018-10-19T07:27:18.195Z,780
2018-10-19T07:27:58.688Z,804
2018-10-19T07:28:40.523Z,816
2018-10-19T07:29:21.016Z,852
2018-10-19T07:30:01.615Z,916
2018-10-19T07:30:45.253Z,976
2018-10-19T07:31:25.740Z,1020
2018-10-19T07:32:56.835Z,1064
2018-10-19T07:33:37.194Z,1064
2018-10-19T07:34:27.882Z,1080
2018-10-19T07:35:05.501Z,1108
2018-10-19T07:35:45.821Z,1128
2018-10-19T07:36:26.379Z,1148
2018-10-19T07:37:06.754Z,1148
2018-10-19T07:37:47.114Z,1124
2018-10-19T07:38:27.752Z,1108
2018-10-19T07:39:08.226Z,1148
2018-10-19T07:39:49.090Z,1208
2018-10-19T07:40:30.094Z,1192
2018-10-19T07:41:10.429Z,1172
2018-10-19T07:41:51.082Z,1168
2018-10-19T07:42:31.654Z,1192
2018-10-19T07:43:11.925Z,1220
2018-10-19T07:43:52.758Z,1248
2018-10-19T07:44:33.182Z,1284
2018-10-19T07:45:13.862Z,1312
2018-10-19T07:45:54.111Z,1340
2018-10-19T07:46:34.895Z,1300
2018-10-19T07:47:15.557Z,1320
2018-10-19T07:47:56.048Z,1360
2018-10-19T07:48:36.203Z,1348
2018-10-19T07:49:16.689Z,1292
2018-10-19T07:49:57.453Z,1240
2018-10-19T07:50:37.842Z,1284
2018-10-19T07:51:18.569Z,1256
2018-10-19T07:51:59.256Z,1248
2018-10-19T07:52:40.149Z,1296
2018-10-19T07:53:20.759Z,1276
2018-10-19T07:54:01.235Z,1260
2018-10-19T07:54:41.724Z,1272
2018-10-19T07:55:22.087Z,1268
2018-10-19T07:56:02.627Z,1300
2018-10-19T07:56:42.968Z,1292
2018-10-19T07:57:23.860Z,1264
2018-10-19T07:58:04.083Z,1204
2018-10-19T07:58:44.879Z,1156
2018-10-19T07:59:25.316Z,1156
2018-10-19T08:00:05.890Z,1112
2018-10-19T08:00:46.196Z,1132
2018-10-19T08:01:26.703Z,1112
2018-10-19T08:02:07.130Z,1108
2018-10-19T08:02:48.009Z,1080
2018-10-19T08:03:28.662Z,1024
2018-10-19T08:04:09.119Z,1000
2018-10-19T08:04:49.585Z,996
2018-10-19T08:05:29.925Z,1012
2018-10-19T08:06:10.606Z,1056
2018-10-19T08:06:51.450Z,1064
2018-10-19T08:07:32.305Z,1044
2018-10-19T08:08:13.065Z,988
2018-10-19T08:08:54.696Z,972
2018-10-19T08:09:35.934Z,932
2018-10-19T08:11:56.003Z,904
2018-10-19T08:12:36.361Z,896
2018-10-19T08:13:16.819Z,888
2018-10-19T08:13:57.294Z,864
2018-10-19T08:14:37.683Z,856
2018-10-19T08:15:18.070Z,844
2018-10-19T08:15:58.509Z,832
2018-10-19T08:16:38.949Z,832
2018-10-19T08:17:19.348Z,832
2018-10-19T08:17:59.872Z,868
2018-10-19T08:18:40.354Z,924
2018-10-19T08:19:21.034Z,976
2018-10-19T08:20:01.504Z,1044
2018-10-19T08:20:41.972Z,1108
2018-10-19T08:21:22.487Z,1156
2018-10-19T08:22:02.996Z,1180
2018-10-19T08:22:43.397Z,1168
2018-10-19T08:23:23.811Z,1124
2018-10-19T08:24:04.205Z,1120
2018-10-19T08:24:44.718Z,1104
2018-10-19T08:25:25.150Z,1100
2018-10-19T08:26:05.705Z,1100
2018-10-19T08:26:46.236Z,1164
2018-10-19T08:27:26.816Z,1196
2018-10-19T08:28:07.294Z,1212
2018-10-19T08:28:47.660Z,1208
2018-10-19T08:29:28.068Z,1136
2018-10-19T08:31:54.930Z,1028
2018-10-19T08:32:47.398Z,992
2018-10-19T08:33:40.944Z,912
2018-10-19T08:34:33.748Z,856
2018-10-19T08:35:30.832Z,788
2018-10-19T08:36:24.562Z,756
2018-10-19T08:37:18.420Z,788
2018-10-19T08:38:13.023Z,876
2018-10-19T08:39:05.147Z,920
2018-10-19T08:39:57.855Z,896
2018-10-19T08:40:53.418Z,912
2018-10-19T08:41:51.792Z,936
2018-10-19T08:47:53.267Z,1040
2018-10-19T08:48:46.970Z,988
2018-10-19T08:49:41.386Z,988
2018-10-19T08:50:37.940Z,956
2018-10-19T08:51:34.316Z,1008
2018-10-19T08:52:32.250Z,940
2018-10-19T08:53:34.899Z,832
2018-10-19T08:54:28.178Z,800
2018-10-19T08:56:43.145Z,796
2018-10-19T08:57:43.051Z,872
2018-10-19T08:58:36.293Z,956
2018-10-19T08:59:33.253Z,1052
2018-10-19T09:00:33.336Z,1116
2018-10-19T09:01:34.906Z,1240
2018-10-19T09:02:36.744Z,1520
2018-10-19T09:03:38.285Z,1528
2018-10-19T09:04:40.975Z,1292
2018-10-19T09:05:35.080Z,1300
2018-10-19T09:06:38.511Z,1296
2018-10-19T09:07:36.737Z,1216
2018-10-19T09:08:37.922Z,1208
2018-10-19T09:09:41.411Z,1240
2018-10-19T09:10:35.264Z,1192
2018-10-19T09:11:32.508Z,1068
2018-10-19T09:12:23.803Z,880
2018-10-19T09:13:04.395Z,792
2018-10-19T09:13:44.730Z,756
2018-10-19T09:14:25.219Z,768
2018-10-19T09:15:05.607Z,756
2018-10-19T09:15:46.038Z,740
2018-10-19T09:16:27.402Z,748
2018-10-19T09:17:07.980Z,748
2018-10-19T09:19:44.410Z,780
2018-10-19T09:20:36.813Z,836
2018-10-19T09:21:30.586Z,876
2018-10-19T09:22:25.220Z,896
2018-10-19T09:23:18.813Z,892
2018-10-19T09:24:13.908Z,896
2018-10-19T09:25:07.174Z,904
2018-10-19T09:26:02.450Z,916
2018-10-19T09:26:56.317Z,932
2018-10-19T09:27:48.557Z,924
2018-10-19T09:30:08.302Z,820
2018-10-19T09:31:06.380Z,776
2018-10-19T09:32:02.562Z,704
2018-10-19T09:32:59.698Z,676
2018-10-19T09:33:53.651Z,672
2018-10-19T09:34:49.254Z,668
2018-10-19T09:35:42.865Z,648
2018-10-19T09:36:35.801Z,656
2018-10-19T09:37:29.292Z,700
2018-10-19T09:38:22.265Z,752
2018-10-19T09:39:17.188Z,788
2018-10-19T09:40:12.968Z,764
2018-10-19T09:41:06.288Z,676
2018-10-19T09:41:59.683Z,608
2018-10-19T09:45:02.874Z,564
2018-10-19T09:45:57.320Z,544
2018-10-19T09:46:49.770Z,560
2018-10-19T09:47:43.295Z,608
2018-10-19T09:48:37.641Z,644
2018-10-19T09:49:31.343Z,684
2018-10-19T09:50:33.564Z,836
2018-10-19T09:51:28.006Z,952
2018-10-19T09:52:24.569Z,908
2018-10-19T09:53:19.283Z,920
2018-10-19T09:54:13.163Z,1008
2018-10-19T09:55:07.496Z,996
2018-10-19T09:56:01.770Z,996
2018-10-19T09:56:54.836Z,1032
2018-10-19T09:57:49.277Z,932
2018-10-19T09:58:43.222Z,784
2018-10-19T09:59:37.022Z,744
2018-10-19T10:00:29.876Z,760
2018-10-19T10:01:30.023Z,748
2018-10-19T10:02:24.210Z,792
2018-10-19T10:03:24.457Z,816
2018-10-19T10:04:17.774Z,860
2018-10-19T10:05:10.559Z,880
2018-10-19T10:06:03.486Z,880
2018-10-19T10:06:56.529Z,884
2018-10-19T10:07:48.758Z,936
2018-10-19T10:08:42.040Z,960
2018-10-19T10:09:35.866Z,948
2018-10-19T10:10:29.121Z,936
2018-10-19T10:11:22.969Z,924
2018-10-19T10:12:15.890Z,940
2018-10-19T10:13:08.952Z,960
2018-10-19T10:14:05.311Z,952
2018-10-19T10:14:58.602Z,916
2018-10-19T10:15:51.756Z,896
2018-10-19T10:16:45.178Z,920
2018-10-19T10:17:44.553Z,936
2018-10-19T10:18:40.025Z,936
2018-10-19T10:19:36.464Z,928
2018-10-19T10:20:28.806Z,936
2018-10-19T10:21:21.493Z,944
2018-10-19T10:22:16.358Z,932
2018-10-19T10:23:12.172Z,944
2018-10-19T10:24:04.037Z,964
2018-10-19T10:24:56.423Z,968
2018-10-19T10:25:48.932Z,972
2018-10-19T10:26:47.875Z,968
2018-10-19T10:27:41.424Z,988
2018-10-19T10:28:34.770Z,1012
2018-10-19T10:29:29.953Z,1068
2018-10-19T11:07:27.094Z,1356
2018-10-19T11:08:08.495Z,1332
2018-10-19T11:08:48.933Z,1304
2018-10-19T11:09:29.375Z,1256
2018-10-19T11:10:10.209Z,1260
2018-10-19T11:10:50.492Z,1256
2018-10-19T11:11:30.961Z,1224
2018-10-19T11:12:12.473Z,1148
2018-10-19T11:12:52.812Z,1092
2018-10-19T11:13:33.803Z,1076
2018-10-19T11:14:14.526Z,1052
2018-10-19T11:14:55.249Z,1048
2018-10-19T11:15:35.666Z,1076
2018-10-19T11:16:16.139Z,1120
2018-10-19T11:16:56.791Z,1124
2018-10-19T11:17:37.041Z,1204
2018-10-19T11:18:18.259Z,1164
2018-10-19T11:18:59.319Z,1232
2018-10-19T11:19:40.133Z,1216
2018-10-19T11:20:20.528Z,1264
2018-10-19T11:21:01.865Z,1340
2018-10-19T11:21:42.449Z,1488
2018-10-19T11:22:22.877Z,1500
2018-10-19T11:23:03.506Z,1488
2018-10-19T11:23:43.943Z,1432
2018-10-19T11:24:24.305Z,1380
2018-10-19T11:25:04.863Z,1396
2018-10-19T11:25:45.303Z,1516
2018-10-19T11:26:25.692Z,1524
2018-10-19T11:27:06.031Z,1568
2018-10-19T11:27:46.460Z,1628
2018-10-19T11:28:26.937Z,1664
2018-10-19T11:29:07.334Z,1660
2018-10-19T11:29:47.788Z,1680
2018-10-19T11:30:28.294Z,1684
2018-10-19T11:31:08.750Z,1592
2018-10-19T11:31:49.214Z,1576
2018-10-19T11:32:30.097Z,1656
2018-10-19T11:33:10.564Z,1704
2018-10-19T11:33:51.400Z,1692
2018-10-19T11:34:33.162Z,1696
2018-10-19T11:35:13.925Z,1668
2018-10-19T11:42:28.800Z,1500
2018-10-19T11:43:09.274Z,1476
2018-10-19T11:43:49.645Z,1476
2018-10-19T11:50:21.730Z,1488
2018-10-19T11:55:59.901Z,1440
2018-10-19T12:02:25.036Z,1408
2018-10-19T12:03:10.914Z,1368
2018-10-19T12:03:51.180Z,1332
2018-10-19T12:04:37.775Z,1344
2018-10-19T12:06:19.940Z,1348
2018-10-19T12:07:01.653Z,1316
2018-10-19T12:07:45.507Z,1264
2018-10-19T12:23:43.076Z,1144
2018-10-19T12:24:29.741Z,1148
2018-10-19T12:25:10.461Z,1172
2018-10-19T12:25:51.603Z,1188
2018-10-19T12:48:44.395Z,1140
2018-10-19T12:49:24.579Z,1136
2018-10-19T12:50:05.023Z,1136
2018-10-19T12:50:45.809Z,1140
2018-10-19T12:51:26.250Z,1136
2018-10-19T12:52:06.848Z,1140
2018-10-19T12:52:47.293Z,1136
2018-10-19T12:53:27.822Z,1128
2018-10-19T12:54:08.194Z,1140
2018-10-19T12:54:49.330Z,1140
2018-10-19T12:55:32.669Z,1128
2018-10-19T12:58:10.220Z,1108
2018-10-19T12:58:50.836Z,1112
2018-10-19T12:59:32.071Z,1104
2018-10-19T13:00:40.230Z,1088
2018-10-19T13:01:21.028Z,1108
2018-10-19T13:03:06.190Z,1116
2018-10-19T13:03:46.567Z,1144
2018-10-19T13:04:27.684Z,1132
2018-10-19T13:05:15.519Z,1124
2018-10-19T13:05:57.029Z,1096
2018-10-19T13:06:37.414Z,1008
2018-10-19T13:07:17.894Z,896
2018-10-19T13:07:58.332Z,864
2018-10-19T13:08:40.248Z,856
2018-10-19T13:12:52.002Z,868
2018-10-19T13:13:32.714Z,864
2018-10-19T13:14:14.804Z,912
2018-10-19T13:17:00.706Z,1004
2018-10-19T13:19:23.065Z,948
2018-10-19T13:20:04.033Z,876
2018-10-19T13:26:31.314Z,900
2018-10-19T13:27:11.011Z,944
2018-10-19T13:27:53.424Z,944
2018-10-19T13:28:35.015Z,964
2018-10-19T13:29:14.622Z,920
2018-10-19T13:29:55.246Z,920
2018-10-19T13:30:35.532Z,940
2018-10-19T13:31:16.015Z,960
2018-10-19T13:31:57.137Z,916
2018-10-19T13:32:39.836Z,884
2018-10-19T13:33:20.243Z,880
2018-10-19T13:34:00.672Z,868
2018-10-19T13:34:41.099Z,848
2018-10-19T13:35:21.910Z,832
2018-10-19T13:36:02.160Z,820
2018-10-19T13:42:30.515Z,832
2018-10-19T13:43:11.469Z,852
2018-10-19T13:43:54.567Z,860
2018-10-19T13:44:34.847Z,868
2018-10-19T13:45:15.414Z,868
2018-10-19T13:46:14.159Z,876
2018-10-19T13:46:54.863Z,876
2018-10-19T13:47:35.232Z,868
2018-10-19T13:48:15.648Z,872
2018-10-19T13:48:56.099Z,868
2018-10-19T13:49:36.474Z,868
2018-10-19T13:52:09.770Z,864
2018-10-19T13:52:55.676Z,856
2018-10-19T13:53:50.782Z,856
2018-10-19T13:54:35.823Z,852
2018-10-19T13:55:16.328Z,864
2018-10-19T14:04:52.969Z,996
2018-10-19T14:05:33.816Z,992
2018-10-19T14:06:14.850Z,980
2018-10-19T14:06:55.943Z,980
2018-10-19T14:07:38.581Z,976
2018-10-19T14:08:20.382Z,968
2018-10-19T14:22:41.114Z,908
2018-10-19T14:23:22.010Z,904
2018-10-19T14:24:02.840Z,900
2018-10-19T14:24:42.996Z,900
2018-10-19T14:25:23.467Z,900
2018-10-19T14:26:03.893Z,900
2018-10-19T14:26:44.458Z,900
2018-10-19T14:27:24.807Z,892
2018-10-19T14:28:05.347Z,888
2018-10-19T14:28:46.445Z,888
2018-10-19T14:29:27.091Z,892
2018-10-19T14:30:09.306Z,892
2018-10-19T14:30:50.884Z,888
2018-10-19T14:31:34.072Z,880
2018-10-19T14:33:50.159Z,868
2018-10-19T14:34:30.319Z,864
2018-10-19T14:35:10.969Z,860
2018-10-19T14:35:51.250Z,864
2018-10-19T14:36:31.689Z,872
2018-10-19T14:37:12.073Z,868
2018-10-19T14:37:52.549Z,868
2018-10-19T14:38:37.727Z,864
2018-10-19T14:39:16.608Z,864
2018-10-19T14:39:57.083Z,860
2018-10-19T14:40:37.707Z,860
2018-10-19T14:41:18.158Z,860
2018-10-19T14:41:59.307Z,860
2018-10-19T14:42:39.694Z,856
2018-10-19T14:43:20.358Z,852
2018-10-19T14:44:06.072Z,852
2018-10-19T14:44:46.666Z,860
2018-10-19T14:45:26.878Z,872
2018-10-19T14:46:07.447Z,872
2018-10-19T14:46:48.506Z,876
2018-10-19T14:47:28.960Z,892
2018-10-19T14:48:09.643Z,936
2018-10-19T14:48:49.850Z,1000
2018-10-19T14:51:27.729Z,1052
2018-10-19T14:52:08.083Z,1228
2018-10-19T14:52:48.494Z,1516
2018-10-19T14:53:28.861Z,1720
2018-10-19T14:54:09.505Z,1708
2018-10-19T14:54:50.083Z,1644
2018-10-19T14:55:30.540Z,1556
2018-10-19T14:56:11.489Z,1472
2018-10-19T14:56:51.723Z,1432
2018-10-19T14:57:34.134Z,1396
2018-10-19T14:58:14.688Z,1420
2018-10-19T14:58:55.147Z,1464
2018-10-19T14:59:35.491Z,1516
2018-10-19T15:00:15.941Z,1548
2018-10-19T15:00:56.441Z,1556
2018-10-19T15:01:41.231Z,1500
2018-10-19T15:09:39.819Z,1616
2018-10-19T15:10:23.669Z,1632
2018-10-19T15:11:04.039Z,1684
2018-10-19T15:11:44.966Z,1692
2018-10-19T15:12:25.341Z,1620
2018-10-19T15:13:05.757Z,1480
2018-10-19T15:13:46.899Z,1336
2018-10-19T15:14:27.312Z,1276
2018-10-19T15:15:07.709Z,1252
2018-10-19T15:15:48.066Z,1204
2018-10-19T15:16:31.226Z,1176
2018-10-19T15:17:12.282Z,1132
2018-10-19T15:17:52.741Z,1072
2018-10-19T15:18:37.751Z,1016
2018-10-19T15:20:41.552Z,880
2018-10-19T15:21:21.826Z,844
2018-10-19T15:22:02.487Z,816
2018-10-19T15:22:44.871Z,792
2018-10-19T15:23:25.662Z,772
2018-10-19T15:24:06.266Z,752
2018-10-19T15:24:46.584Z,740
2018-10-19T15:25:26.961Z,724
2018-10-19T15:26:07.392Z,708
2018-10-19T15:26:47.841Z,684
2018-10-19T15:27:28.282Z,668
2018-10-19T15:28:08.625Z,652
2018-10-19T15:28:49.064Z,628
2018-10-19T15:29:29.585Z,612
2018-10-19T15:30:10.025Z,600
2018-10-19T15:30:50.436Z,584
2018-10-19T15:31:30.804Z,572
2018-10-19T15:43:07.755Z,436
2018-10-19T15:43:48.082Z,428
2018-10-19T15:44:28.519Z,424